Terminal Aerodrome Forecast
Issued by NWS

Home | Current Version | Previous Version | Text Only | Print | Product List | Glossary On
Versions: 1 2 3 4 5 6 7 8 9 10 11 12 13 14 15 16 17 18
127
FTAK31 PAJN 251145
TAFAJN
TAF
PAJN 251145Z 2512/2612 13010KT P6SM VCSH BKN035 OVC050
      WS015/08030KT
      TEMPO 2512/2515 VRB05KT 5SM -SHSN BR FEW015 OVC030
     FM251500 11006KT 6SM -SHSN SCT025 OVC035
      TEMPO 2516/2520 VRB03KT 4SM -SHSN BR BKN015 OVC025
     FM252200 07005KT P6SM SCT035 OVC050=

USA.gov is the U.S. government's official web portal to all federal, state and local government web resources and services.